createdAt,value
2018-09-23T00:02:15.462Z,6.00
2018-09-23T00:04:45.717Z,5.63
2018-09-23T00:07:15.885Z,6.03
2018-09-23T00:09:46.619Z,6.07
2018-09-23T00:12:16.603Z,5.80
2018-09-23T00:14:47.567Z,6.33
2018-09-23T00:17:18.422Z,6.20
2018-09-23T00:19:49.310Z,6.13
2018-09-23T00:22:19.547Z,5.60
2018-09-23T00:24:49.547Z,6.07
2018-09-23T00:27:19.797Z,6.00
2018-09-23T00:29:51.256Z,6.80
2018-09-23T00:32:23.900Z,6.23
2018-09-23T00:34:54.112Z,7.10
2018-09-23T00:37:24.305Z,5.47
2018-09-23T00:39:55.445Z,6.23
2018-09-23T00:42:25.823Z,6.50
2018-09-23T00:44:55.978Z,6.77
2018-09-23T00:47:26.026Z,6.20
2018-09-23T00:49:56.081Z,6.50
2018-09-23T00:52:27.095Z,6.53
2018-09-23T00:54:57.078Z,6.80
2018-09-23T00:57:27.311Z,7.10
2018-09-23T00:59:58.553Z,6.03
2018-09-23T01:02:28.852Z,7.10
2018-09-23T01:04:59.106Z,6.37
2018-09-23T01:07:32.419Z,6.37
2018-09-23T01:10:03.325Z,6.20
2018-09-23T01:12:33.533Z,6.40
2018-09-23T01:15:05.392Z,6.60
2018-09-23T01:17:35.432Z,7.37
2018-09-23T01:20:05.739Z,6.00
2018-09-23T01:22:36.160Z,6.67
2018-09-23T01:25:06.223Z,6.33
2018-09-23T01:27:36.422Z,6.83
2018-09-23T01:30:08.294Z,6.53
2018-09-23T01:32:38.590Z,6.57
2018-09-23T01:35:08.651Z,6.77
2018-09-23T01:37:38.699Z,6.03
2018-09-23T01:40:09.242Z,6.00
2018-09-23T01:42:39.948Z,7.13
2018-09-23T01:45:09.985Z,7.10
2018-09-23T01:47:40.067Z,7.50
2018-09-23T01:50:11.293Z,7.07
2018-09-23T01:52:42.106Z,7.10
2018-09-23T01:55:12.848Z,7.00
2018-09-23T01:57:42.972Z,7.23
2018-09-23T02:00:13.745Z,7.77
2018-09-23T02:02:43.749Z,6.53
2018-09-23T02:05:13.861Z,6.50
2018-09-23T02:07:44.163Z,6.93
2018-09-23T02:10:15.079Z,7.10
2018-09-23T02:12:45.324Z,7.50
2018-09-23T02:15:16.999Z,7.10
2018-09-23T02:17:47.295Z,7.37
2018-09-23T02:20:17.339Z,7.37
2018-09-23T02:22:46.744Z,7.13
2018-09-23T02:25:16.776Z,7.63
2018-09-23T02:27:47.551Z,6.50
2018-09-23T02:30:17.752Z,6.97
2018-09-23T02:32:47.788Z,7.03
2018-09-23T02:35:21.229Z,5.93
2018-09-23T02:37:51.664Z,7.07
2018-09-23T02:40:22.473Z,6.50
2018-09-23T02:42:52.738Z,6.83
2018-09-23T02:45:24.038Z,7.40
2018-09-23T02:47:54.248Z,6.60
2018-09-23T02:50:24.312Z,6.90
2018-09-23T02:52:54.324Z,7.07
2018-09-23T02:55:24.535Z,6.97
2018-09-23T02:57:54.750Z,7.30
2018-09-23T03:00:25.452Z,7.60
2018-09-23T03:02:55.613Z,7.57
2018-09-23T03:05:25.748Z,7.90
2018-09-23T03:07:56.068Z,7.77
2018-09-23T03:10:26.962Z,6.93
2018-09-23T03:12:57.236Z,9.00
2018-09-23T03:15:28.076Z,8.27
2018-09-23T03:17:58.883Z,7.97
2018-09-23T03:20:30.872Z,8.43
2018-09-23T03:23:01.016Z,9.10
2018-09-23T03:25:31.376Z,9.10
2018-09-23T03:28:03.117Z,9.10
2018-09-23T03:30:33.255Z,8.60
2018-09-23T03:33:03.516Z,8.73
2018-09-23T03:35:33.736Z,9.00
2018-09-23T03:38:04.021Z,9.27
2018-09-23T03:40:34.200Z,9.13
2018-09-23T03:43:04.696Z,9.70
2018-09-23T03:45:34.915Z,9.87
2018-09-23T03:48:05.031Z,10.83
2018-09-23T03:50:35.157Z,10.03
2018-09-23T03:53:05.099Z,10.17
2018-09-23T03:55:35.644Z,10.17
2018-09-23T03:58:05.795Z,9.80
2018-09-23T04:00:37.387Z,9.50
2018-09-23T04:03:07.966Z,9.37
2018-09-23T04:05:38.330Z,9.10
2018-09-23T04:08:08.912Z,10.40
2018-09-23T04:10:40.076Z,9.60
2018-09-23T04:13:10.198Z,9.50
2018-09-23T04:15:40.549Z,10.40
2018-09-23T04:18:10.608Z,10.40
2018-09-23T04:20:40.589Z,10.83
2018-09-23T04:23:10.560Z,10.50
2018-09-23T04:25:40.440Z,10.30
2018-09-23T04:28:10.672Z,9.70
2018-09-23T04:30:40.823Z,10.40
2018-09-23T04:33:11.168Z,10.13
2018-09-23T04:35:41.526Z,10.93
2018-09-23T04:38:11.708Z,10.27
2018-09-23T04:40:41.833Z,9.70
2018-09-23T04:43:12.011Z,10.67
2018-09-23T04:45:43.487Z,10.00
2018-09-23T04:48:13.616Z,9.13
2018-09-23T04:50:45.652Z,10.50
2018-09-23T04:53:15.750Z,10.70
2018-09-23T04:55:46.387Z,9.80
2018-09-23T04:58:17.166Z,10.33
2018-09-23T05:00:47.288Z,11.97
2018-09-23T05:03:17.693Z,12.10
2018-09-23T05:05:47.902Z,12.37
2018-09-23T05:08:18.000Z,13.17
2018-09-23T05:10:48.315Z,12.80
2018-09-23T05:13:18.795Z,12.33
2018-09-23T05:15:49.010Z,13.93
2018-09-23T05:18:19.288Z,12.33
2018-09-23T05:20:49.505Z,12.93
2018-09-23T05:23:19.526Z,13.90
2018-09-23T05:25:49.912Z,11.87
2018-09-23T05:28:21.375Z,12.53
2018-09-23T05:30:51.768Z,12.30
2018-09-23T05:33:21.920Z,12.27
2018-09-23T05:35:52.142Z,13.77
2018-09-23T05:38:22.525Z,13.50
2018-09-23T05:40:52.593Z,13.27
2018-09-23T05:43:22.857Z,14.50
2018-09-23T05:45:53.100Z,13.37
2018-09-23T05:48:24.529Z,13.00
2018-09-23T05:50:54.554Z,12.20
2018-09-23T05:53:25.430Z,13.67
2018-09-23T05:55:56.291Z,13.93
2018-09-23T05:58:27.369Z,13.53
2018-09-23T06:00:57.783Z,13.40
2018-09-23T06:03:27.811Z,12.50
2018-09-23T06:05:57.865Z,12.50
2018-09-23T06:08:27.934Z,11.57
2018-09-23T06:10:58.038Z,12.90
2018-09-23T06:13:28.280Z,11.00
2018-09-23T06:15:58.313Z,11.93
2018-09-23T06:18:29.779Z,11.30
2018-09-23T06:21:00.067Z,11.47
2018-09-23T06:23:30.309Z,12.00
2018-09-23T06:26:01.612Z,10.97
2018-09-23T06:28:31.812Z,11.17
2018-09-23T06:31:01.892Z,12.30
2018-09-23T06:33:31.972Z,12.67
2018-09-23T06:36:02.223Z,12.43
2018-09-23T06:38:33.374Z,11.70
2018-09-23T06:41:03.463Z,10.73
2018-09-23T06:43:35.293Z,12.03
2018-09-23T06:46:05.330Z,11.97
2018-09-23T06:48:35.537Z,11.47
2018-09-23T06:51:06.312Z,11.97
2018-09-23T06:53:36.916Z,11.53
2018-09-23T06:56:07.097Z,11.87
2018-09-23T06:58:37.456Z,10.40
2018-09-23T07:01:08.667Z,12.07
2018-09-23T07:03:39.436Z,11.80
2018-09-23T07:06:09.580Z,11.63
2018-09-23T07:08:39.893Z,12.47
2018-09-23T07:11:10.985Z,11.40
2018-09-23T07:13:41.186Z,12.83
2018-09-23T07:16:11.845Z,10.83
2018-09-23T07:18:41.901Z,10.60
2018-09-23T07:21:12.396Z,11.63
2018-09-23T07:23:42.420Z,11.17
2018-09-23T07:26:13.489Z,11.93
2018-09-23T07:28:43.615Z,12.57
2018-09-23T07:31:14.471Z,10.83
2018-09-23T07:33:45.539Z,11.03
2018-09-23T07:36:15.696Z,11.43
2018-09-23T07:38:47.018Z,11.90
2018-09-23T07:41:17.113Z,11.33
2018-09-23T07:43:48.222Z,12.50
2018-09-23T07:46:19.072Z,12.00
2018-09-23T07:48:50.901Z,11.67
2018-09-23T07:51:20.901Z,10.90
2018-09-23T07:53:51.432Z,12.07
2018-09-23T07:56:22.236Z,12.37
2018-09-23T07:58:53.563Z,12.50
2018-09-23T08:01:23.667Z,11.57
2018-09-23T08:03:53.958Z,11.63
2018-09-23T08:06:24.087Z,10.77
2018-09-23T08:08:54.075Z,10.27
2018-09-23T08:11:24.217Z,10.37
2018-09-23T08:13:54.540Z,10.70
2018-09-23T08:16:24.683Z,11.07
2018-09-23T08:18:57.582Z,11.27
2018-09-23T08:21:27.599Z,10.83
2018-09-23T08:23:58.252Z,11.90
2018-09-23T08:26:29.321Z,9.93
2018-09-23T08:28:59.314Z,10.60
2018-09-23T08:31:29.688Z,10.73
2018-09-23T08:33:59.844Z,10.70
2018-09-23T08:36:30.326Z,13.07
2018-09-23T08:39:00.577Z,11.50
2018-09-23T08:41:30.563Z,11.80
2018-09-23T08:44:00.746Z,11.70
2018-09-23T08:46:31.651Z,11.50
2018-09-23T08:49:01.776Z,9.50
2018-09-23T08:51:31.972Z,10.40
2018-09-23T08:54:02.103Z,10.70
2018-09-23T08:56:32.109Z,10.77
2018-09-23T08:59:03.757Z,10.57
2018-09-23T09:01:33.836Z,9.80
2018-09-23T09:04:03.837Z,10.13
2018-09-23T09:06:34.855Z,10.00
2018-09-23T09:09:05.544Z,9.83
2018-09-23T09:11:35.921Z,10.77
2018-09-23T09:14:07.309Z,9.70
2018-09-23T09:16:37.529Z,10.20
2018-09-23T09:19:07.731Z,9.77
2018-09-23T09:21:38.125Z,9.43
2018-09-23T09:24:08.183Z,8.50
2018-09-23T09:26:40.447Z,8.57
2018-09-23T09:29:10.714Z,9.13
2018-09-23T09:31:42.514Z,8.60
2018-09-23T09:34:12.700Z,8.80
2018-09-23T09:36:43.270Z,9.33
2018-09-23T09:39:13.474Z,11.17
2018-09-23T09:41:43.900Z,10.10
2018-09-23T09:44:15.074Z,9.20
2018-09-23T09:46:45.512Z,9.73
2018-09-23T09:49:16.498Z,11.00
2018-09-23T09:51:47.653Z,9.60
2018-09-23T09:54:17.758Z,10.50
2018-09-23T09:56:48.827Z,10.53
2018-09-23T09:59:18.935Z,8.70
2018-09-23T10:01:49.097Z,9.17
2018-09-23T10:04:19.355Z,9.07
2018-09-23T10:06:49.630Z,10.10
2018-09-23T10:09:19.792Z,9.63
2018-09-23T10:11:49.923Z,9.50
2018-09-23T10:14:20.129Z,10.10
2018-09-23T10:16:50.345Z,10.93
2018-09-23T10:19:22.035Z,10.10
2018-09-23T10:21:54.262Z,9.87
2018-09-23T10:24:24.556Z,10.67
2018-09-23T10:26:54.738Z,8.80
2018-09-23T10:29:24.993Z,9.83
2018-09-23T10:31:55.409Z,9.80
2018-09-23T10:34:25.576Z,9.90
2018-09-23T10:36:56.319Z,9.37
2018-09-23T10:39:26.572Z,9.90
2018-09-23T10:41:56.696Z,9.60
2018-09-23T10:44:26.973Z,9.27
2018-09-23T10:46:57.251Z,9.27
2018-09-23T10:49:27.432Z,10.43
2018-09-23T10:51:57.746Z,9.97
2018-09-23T10:54:27.665Z,9.20
2018-09-23T10:56:57.974Z,10.27
2018-09-23T10:59:28.179Z,8.97
2018-09-23T11:01:58.442Z,9.97
2018-09-23T11:04:28.627Z,9.97
2018-09-23T11:06:58.784Z,10.67
2018-09-23T11:09:29.015Z,10.30
2018-09-23T11:12:00.201Z,9.40
2018-09-23T11:14:31.183Z,10.17
2018-09-23T11:17:01.421Z,9.40
2018-09-23T11:19:31.480Z,9.87
2018-09-23T11:22:01.563Z,9.13
2018-09-23T11:24:31.837Z,9.10
2018-09-23T11:27:02.001Z,8.90
2018-09-23T11:29:34.059Z,10.47
2018-09-23T11:32:04.290Z,10.07
2018-09-23T11:34:34.620Z,10.50
2018-09-23T11:37:04.652Z,10.07
2018-09-23T11:39:35.368Z,9.40
2018-09-23T11:42:05.524Z,10.30
2018-09-23T11:44:37.393Z,10.63
2018-09-23T11:47:07.693Z,10.30
2018-09-23T11:49:39.205Z,9.20
2018-09-23T11:52:09.620Z,10.13
2018-09-23T11:54:39.503Z,9.50
2018-09-23T11:57:09.696Z,11.03
2018-09-23T11:59:39.938Z,10.00
2018-09-23T12:02:10.261Z,8.77
2018-09-23T12:04:40.567Z,9.10
2018-09-23T12:07:10.562Z,10.60
2018-09-23T12:09:40.757Z,9.43
2018-09-23T12:12:10.823Z,10.83
2018-09-23T12:14:41.079Z,9.80
2018-09-23T12:17:11.540Z,9.20
2018-09-23T12:19:44.542Z,10.03
2018-09-23T12:22:14.866Z,10.30
2018-09-23T12:24:45.250Z,8.60
2018-09-23T12:27:15.563Z,9.80
2018-09-23T12:29:45.897Z,10.10
2018-09-23T12:32:16.014Z,8.90
2018-09-23T12:34:46.495Z,8.70
2018-09-23T12:37:17.642Z,9.27
2018-09-23T12:39:48.447Z,9.30
2018-09-23T12:42:18.401Z,9.00
2018-09-23T12:44:48.512Z,9.47
2018-09-23T12:47:18.625Z,8.90
2018-09-23T12:49:49.100Z,9.23
2018-09-23T12:52:20.235Z,8.80
2018-09-23T12:54:51.251Z,9.47
2018-09-23T12:57:21.561Z,10.17
2018-09-23T12:59:52.532Z,8.63
2018-09-23T13:02:22.561Z,9.13
2018-09-23T13:04:52.776Z,9.70
2018-09-23T13:07:22.900Z,9.90
2018-09-23T13:09:53.116Z,9.37
2018-09-23T13:12:23.220Z,9.10
2018-09-23T13:14:54.679Z,9.60
2018-09-23T13:17:26.100Z,9.93
2018-09-23T13:19:57.200Z,9.33
2018-09-23T13:22:27.527Z,8.87
2018-09-23T13:24:57.772Z,10.40
2018-09-23T13:27:29.663Z,9.57
2018-09-23T13:29:59.936Z,9.87
2018-09-23T13:32:30.120Z,10.13
2018-09-23T13:35:00.351Z,9.47
2018-09-23T13:37:34.031Z,9.20
2018-09-23T13:40:04.214Z,10.03
2018-09-23T13:42:34.578Z,10.63
2018-09-23T13:45:04.695Z,8.80
2018-09-23T13:47:34.686Z,8.87
2018-09-23T13:50:05.132Z,8.47
2018-09-23T13:52:35.398Z,8.93
2018-09-23T13:55:05.835Z,9.80
2018-09-23T13:57:35.750Z,9.50
2018-09-23T14:00:05.826Z,9.23
2018-09-23T14:02:36.142Z,10.13
2018-09-23T14:05:07.460Z,14.23
2018-09-23T14:07:37.382Z,10.20
2018-09-23T14:10:07.779Z,10.67
2018-09-23T14:12:38.188Z,11.40
2018-09-23T14:15:08.284Z,9.73
2018-09-23T14:17:38.564Z,8.03
2018-09-23T14:20:09.117Z,8.67
2018-09-23T14:22:39.435Z,8.90
2018-09-23T14:25:09.927Z,9.33
2018-09-23T14:27:40.005Z,10.10
2018-09-23T14:30:11.165Z,9.47
2018-09-23T14:32:41.375Z,8.80
2018-09-23T14:35:12.684Z,8.47
2018-09-23T14:37:42.884Z,8.10
2018-09-23T14:40:12.926Z,8.30
2018-09-23T14:42:43.383Z,7.63
2018-09-23T14:45:13.881Z,7.73
2018-09-23T14:47:44.971Z,8.67
2018-09-23T14:50:18.617Z,7.17
2018-09-23T14:52:48.851Z,7.40
2018-09-23T14:55:21.687Z,8.20
2018-09-23T14:57:51.724Z,8.27
2018-09-23T15:00:23.237Z,8.80
2018-09-23T15:02:53.523Z,7.60
2018-09-23T15:05:23.473Z,8.30
2018-09-23T15:07:53.545Z,7.10
2018-09-23T15:10:23.723Z,6.93
2018-09-23T15:12:53.944Z,6.97
2018-09-23T15:15:29.868Z,7.73
2018-09-23T15:18:00.703Z,6.80
2018-09-23T15:20:31.764Z,6.37
2018-09-23T15:23:01.972Z,7.07
2018-09-23T15:25:32.402Z,7.47
2018-09-23T15:28:02.595Z,6.13
2018-09-23T15:30:32.653Z,6.57
2018-09-23T15:33:02.762Z,7.27
2018-09-23T15:35:32.981Z,6.10
2018-09-23T15:38:02.970Z,7.70
2018-09-23T15:40:34.312Z,6.40
2018-09-23T15:43:04.661Z,6.93
2018-09-23T15:45:36.057Z,6.60
2018-09-23T15:48:06.052Z,6.77
2018-09-23T15:50:36.600Z,6.80
2018-09-23T15:53:06.669Z,7.73
2018-09-23T15:55:37.042Z,7.30
2018-09-23T15:58:07.814Z,6.67
2018-09-23T16:00:40.288Z,7.00
2018-09-23T16:03:10.561Z,7.00
2018-09-23T16:05:40.865Z,6.37
2018-09-23T16:08:10.902Z,8.13
2018-09-23T16:10:41.142Z,7.90
2018-09-23T16:13:11.340Z,8.37
2018-09-23T16:15:41.666Z,7.90
2018-09-23T16:18:13.271Z,8.00
2018-09-23T16:20:43.560Z,7.43
2018-09-23T16:23:13.904Z,7.50
2018-09-23T16:25:43.989Z,8.00
2018-09-23T16:28:14.098Z,8.50
2018-09-23T16:30:44.475Z,8.90
2018-09-23T16:33:14.633Z,7.90
2018-09-23T16:35:44.580Z,8.00
2018-09-23T16:38:14.798Z,8.73
2018-09-23T16:40:45.204Z,8.07
2018-09-23T16:43:17.665Z,7.87
2018-09-23T16:45:47.690Z,7.53
2018-09-23T16:48:17.783Z,7.03
2018-09-23T16:50:48.370Z,7.07
2018-09-23T16:53:18.735Z,7.87
2018-09-23T16:55:50.707Z,7.13
2018-09-23T16:58:20.980Z,7.63
2018-09-23T17:00:51.578Z,7.83
2018-09-23T17:03:21.717Z,8.00
2018-09-23T17:05:51.855Z,7.40
2018-09-23T17:08:21.694Z,7.13
2018-09-23T17:10:52.222Z,8.03
2018-09-23T17:13:23.489Z,7.90
2018-09-23T17:15:53.588Z,7.53
2018-09-23T17:18:23.632Z,7.53
2018-09-23T17:20:55.032Z,7.23
2018-09-23T17:23:25.206Z,7.47
2018-09-23T17:25:55.676Z,7.97
2018-09-23T17:28:26.009Z,7.30
2018-09-23T17:30:56.051Z,7.80
2018-09-23T17:33:26.256Z,7.30
2018-09-23T17:35:56.514Z,7.67
2018-09-23T17:38:26.948Z,7.40
2018-09-23T17:40:57.271Z,7.50
2018-09-23T17:43:27.367Z,6.93
2018-09-23T17:45:57.626Z,7.83
2018-09-23T17:48:27.796Z,6.40
2018-09-23T17:50:57.971Z,6.77
2018-09-23T17:53:29.558Z,7.27
2018-09-23T17:56:02.552Z,7.40
2018-09-23T17:58:46.787Z,6.90
2018-09-23T18:01:16.992Z,7.10
2018-09-23T18:03:47.366Z,7.03
2018-09-23T18:06:17.771Z,7.13
2018-09-23T18:08:48.077Z,8.20
2018-09-23T18:11:18.250Z,7.47
2018-09-23T18:13:48.877Z,7.07
2018-09-23T18:16:19.054Z,7.50
2018-09-23T18:18:49.305Z,8.13
2018-09-23T18:21:19.923Z,7.13
2018-09-23T18:23:49.980Z,6.43
2018-09-23T18:26:20.140Z,8.30
2018-09-23T18:28:50.413Z,7.20
2018-09-23T18:31:21.957Z,7.00
2018-09-23T18:33:52.274Z,7.13
2018-09-23T18:36:22.507Z,8.27
2018-09-23T18:38:52.952Z,7.40
2018-09-23T18:41:23.349Z,7.87
2018-09-23T18:43:53.529Z,7.43
2018-09-23T18:46:23.602Z,7.43
2018-09-23T18:48:53.822Z,7.97
2018-09-23T18:51:23.908Z,7.50
2018-09-23T18:53:58.770Z,7.77
2018-09-23T18:56:29.079Z,7.60
2018-09-23T18:58:59.319Z,8.87
2018-09-23T19:01:29.867Z,7.53
2018-09-23T19:04:00.222Z,8.67
2018-09-23T19:06:30.419Z,8.67
2018-09-23T19:09:00.642Z,9.40
2018-09-23T19:11:30.929Z,9.30
2018-09-23T19:14:02.018Z,8.70
2018-09-23T19:16:33.721Z,8.80
2018-09-23T19:19:04.937Z,8.90
2018-09-23T19:21:35.155Z,9.10
2018-09-23T19:24:06.947Z,9.40
2018-09-23T19:26:38.596Z,8.90
2018-09-23T19:29:09.573Z,9.97
2018-09-23T19:31:39.722Z,9.23
2018-09-23T19:34:10.077Z,9.47
2018-09-23T19:36:42.186Z,9.43
2018-09-23T19:39:12.740Z,9.00
2018-09-23T19:41:42.904Z,9.47
2018-09-23T19:44:12.970Z,9.90
2018-09-23T19:46:43.134Z,9.47
2018-09-23T19:49:13.134Z,10.57
2018-09-23T19:51:43.396Z,9.30
2018-09-23T19:54:13.655Z,10.37
2018-09-23T19:56:50.677Z,9.63
2018-09-23T19:59:31.080Z,11.60
2018-09-23T20:02:01.481Z,9.00
2018-09-23T20:04:31.564Z,9.57
2018-09-23T20:07:01.836Z,9.03
2018-09-23T20:09:32.007Z,9.20
2018-09-23T20:12:03.304Z,10.40
2018-09-23T20:14:33.415Z,10.30
2018-09-23T20:17:03.562Z,9.97
2018-09-23T20:19:39.865Z,9.90
2018-09-23T20:22:11.095Z,11.67
2018-09-23T20:24:41.235Z,8.93
2018-09-23T20:27:12.929Z,10.03
2018-09-23T20:29:43.004Z,10.00
2018-09-23T20:32:13.323Z,10.60
2018-09-23T20:34:43.545Z,9.77
2018-09-23T20:37:13.938Z,10.30
2018-09-23T20:39:46.232Z,9.93
2018-09-23T20:42:16.796Z,9.90
2018-09-23T20:44:46.955Z,9.50
2018-09-23T20:47:17.118Z,9.80
2018-09-23T20:49:47.227Z,9.17
2018-09-23T20:52:18.803Z,10.00
2018-09-23T20:54:48.821Z,10.00
2018-09-23T20:57:21.423Z,10.30
2018-09-23T20:59:51.700Z,9.90
2018-09-23T21:02:22.695Z,9.90
2018-09-23T21:04:54.753Z,10.40
2018-09-23T21:07:24.937Z,9.50
2018-09-23T21:09:55.432Z,9.93
2018-09-23T21:12:29.973Z,10.90
2018-09-23T21:15:00.027Z,9.70
2018-09-23T21:17:30.418Z,10.40
2018-09-23T21:20:01.646Z,10.17
2018-09-23T21:22:32.066Z,10.37
2018-09-23T21:25:03.161Z,10.40
2018-09-23T21:27:33.584Z,10.50
2018-09-23T21:30:03.744Z,10.30
2018-09-23T21:32:33.912Z,9.20
2018-09-23T21:35:04.150Z,8.73
2018-09-23T21:37:34.431Z,9.20
2018-09-23T21:40:05.535Z,9.67
2018-09-23T21:42:37.105Z,10.60
2018-09-23T21:45:07.476Z,9.47
2018-09-23T21:47:37.820Z,10.50
2018-09-23T21:50:07.965Z,10.97
2018-09-23T21:52:38.921Z,10.90
2018-09-23T21:55:11.179Z,10.10
2018-09-23T21:57:42.154Z,10.83
2018-09-23T22:00:12.440Z,10.77
2018-09-23T22:02:43.279Z,11.50
2018-09-23T22:05:13.466Z,10.70
2018-09-23T22:07:43.700Z,11.37
2018-09-23T22:10:14.045Z,10.87
2018-09-23T22:12:44.101Z,10.80
2018-09-23T22:15:18.220Z,12.03
2018-09-23T22:17:48.358Z,11.10
2018-09-23T22:20:18.485Z,11.53
2018-09-23T22:22:48.652Z,11.50
2018-09-23T22:25:18.743Z,10.73
2018-09-23T22:27:51.665Z,10.60
2018-09-23T22:30:22.124Z,11.07
2018-09-23T22:32:53.528Z,11.73
2018-09-23T22:35:23.617Z,10.70
2018-09-23T22:37:53.906Z,12.17
2018-09-23T22:40:24.466Z,13.43
2018-09-23T22:42:54.621Z,11.07
2018-09-23T22:45:24.684Z,13.43
2018-09-23T22:47:55.118Z,13.07
2018-09-23T22:50:25.912Z,13.83
2018-09-23T22:52:56.837Z,13.83
2018-09-23T22:55:27.041Z,14.00
2018-09-23T22:57:57.116Z,14.23
2018-09-23T23:00:27.230Z,13.30
2018-09-23T23:02:57.315Z,14.20
2018-09-23T23:05:27.719Z,13.60
2018-09-23T23:07:57.730Z,13.40
2018-09-23T23:10:27.925Z,13.90
2018-09-23T23:12:58.255Z,14.00
2018-09-23T23:15:28.830Z,15.03
2018-09-23T23:17:58.842Z,13.63
2018-09-23T23:20:29.195Z,13.50
2018-09-23T23:22:59.792Z,15.33
2018-09-23T23:25:29.811Z,14.40
2018-09-23T23:27:59.921Z,14.23
2018-09-23T23:30:30.109Z,14.30
2018-09-23T23:33:01.234Z,14.30
2018-09-23T23:35:31.621Z,14.70
2018-09-23T23:38:01.620Z,14.60
2018-09-23T23:40:31.548Z,14.97
2018-09-23T23:43:01.828Z,14.10
2018-09-23T23:45:31.905Z,13.40
2018-09-23T23:48:02.260Z,13.90
2018-09-23T23:50:32.562Z,13.90
2018-09-23T23:53:04.343Z,16.30
2018-09-23T23:55:34.385Z,15.27
2018-09-23T23:58:04.467Z,15.43
